YLJ weather

Meadow Lake Airport
Meadow Lake, Saskatchewan, Canada

Public forecast

Using degrees Celsius for public forecast. Weather courtesy of forecast.io.

Current aviation weather report (METAR) for Meadow Lake Airport

Report is more than 2 hours old.

Retrieved 2019/10/19 00:00 UTC (3 hours ago):

CYLJ 190000Z 25006KT 15SM FEW090 10/02 A2937 RMK AC1 LAST STFD OB/NXT191200UTC SLP965 DENSITY ALT 2000FT

Closest aviation forecast (TAF) to Meadow Lake Airport

Closest forecast is CFB Cold Lake, 63.8 nm (118.2 km) WNW. Retrieved 2019-10-19 00:35 UTC (2 hours ago):

TAF CYOD 182330Z 1900/1924 26005KT P6SM FEW100 SCT250 FM190200 27005KT P6SM FEW060 FEW150 BKN200 FM190600 VRB03KT P6SM FEW080 FEW250 FM191600 28008KT P6SM FEW080 RMK NXT FCST BY 190600Z